COOK1: Arkansas River Nr Coolidge, KS

                                SHEF ID:       COOK1     ARKANSAS R NR COOLIDGE, KS
STATION TYPE:
Regulating: Stage = 8.00, Flow = 2041

PRECIP STAGE STAGE(2) RIV-FLOW WTR-TEMP CONDUCT BAT-LOAD
in ft ft cfs F umho/cm volt
Ccp-Rev Ccp-Rev Ccp-Rev Ccp-Rev Ccp-Rev Ccp-Rev Ccp-Rev
(America/Chicago)
04/29 00:00 0.00 1.78 ---- 16 55.96 7256 12.49
04/29 01:00 0.00 1.78 ---- 16 54.88 7241 12.46
04/29 02:00 0.00 1.78 ---- 16 54.19 7234 12.41
04/29 03:00 0.00 1.78 ---- 16 53.62 7236 12.37
04/29 04:00 0.00 1.78 ---- 16 52.95 7243 12.34
04/29 05:00 0.00 1.77 ---- 15 52.12 7259 12.30
04/29 06:00 0.00 1.77 ---- 15 51.40 7286 12.27
04/29 07:00 0.00 1.76 ---- 15 50.76 7317 12.23
04/29 08:00 0.00 1.76 ---- 15 50.47 7342 12.24
04/29 09:00 0.00 1.76 ---- 15 51.39 7360 12.79
04/29 10:00 0.00 1.76 ---- 15 53.65 7378 13.31
04/29 11:00 0.00 1.75 ---- 15 56.39 7394 13.91
04/29 12:00 0.00 1.75 ---- 15 58.37 7411 13.78
04/29 13:00 0.00 1.76 ---- 15 61.54 7427 14.15
04/29 14:00 0.00 1.75 ---- 15 63.99 7443 14.21
04/29 15:00 0.00 1.75 ---- 15 64.69 7447 14.05
04/29 16:00 0.00 1.76 ---- 15 68.41 7465 14.24
04/29 17:00 0.00 1.76 ---- 15 69.60 7479 14.15
04/29 18:00 0.00 1.75 ---- 15 70.20 7504 13.97
04/29 19:00 0.00 1.76 ---- 15 67.69 7529 13.65
04/29 20:00 0.00 1.76 ---- 15 64.33 7515 13.24
04/29 21:00 0.00 1.76 ---- 15 60.93 7517 12.72
04/29 22:00 0.00 1.76 ---- 15 58.24 7508 12.59
04/29 23:00 0.00 1.76 ---- 15 56.62 7456 12.53
Data processed at Thu 30Apr2026 04:30 GMT

NOTICE: If you are parsing this page

Please convert to using our Data API. Starting early 2026 we will be migrating to: https://water.usace.army.mil with modern pages rendered in JavaScript. When this migration completes you will no longer be able to scrape this page! CWMSDataAPI (CDA)

Timeseries IDs (TSIDs)

TSIDs used from left to right in the data table
COOL.Precip-Inc.Total.1Hour.1Hour.Ccp-Rev
COOL.Stage.Inst.1Hour.0.Ccp-Rev
COOL.Stage-Alt.Inst.1Hour.0.Ccp-Rev
COOL.Flow.Inst.1Hour.0.Ccp-Rev
COOL.Temp-Water.Inst.1Hour.0.Ccp-Rev
COOL.Cond.Inst.1Hour.0.Ccp-Rev
COOL.Volt-Battery Load.Inst.1Hour.0.Ccp-Rev

                            

All information presented herein is the property of the government of the United States of America and may be revised or deleted at any time without prior notice. Dissemination of this information without the expressed written consent of the Public Affairs Office, Tulsa District U.S. Army Corps of Engineers is strictly prohibited. These data are gathered electronically and, as presented, have NOT undergone any form of quality control. These data are NOT guaranteed to be valid or correct.